sensor_id;sensor_type;location;lat;lon;timestamp;temperature;humidity
28374;DHT22;15616;40.148;-102.718;2023-04-08T00:01:09;20.30;49.60
28374;DHT22;15616;40.148;-102.718;2023-04-08T00:03:35;20.30;49.70
28374;DHT22;15616;40.148;-102.718;2023-04-08T00:06:01;20.30;49.60
28374;DHT22;15616;40.148;-102.718;2023-04-08T00:08:27;20.30;49.70
28374;DHT22;15616;40.148;-102.718;2023-04-08T00:10:53;20.30;49.70
28374;DHT22;15616;40.148;-102.718;2023-04-08T00:13:19;20.30;49.70
28374;DHT22;15616;40.148;-102.718;2023-04-08T00:15:45;20.30;49.70
28374;DHT22;15616;40.148;-102.718;2023-04-08T00:18:10;20.30;49.70
28374;DHT22;15616;40.148;-102.718;2023-04-08T00:20:36;20.30;49.70
28374;DHT22;15616;40.148;-102.718;2023-04-08T00:23:01;20.30;49.70
28374;DHT22;15616;40.148;-102.718;2023-04-08T00:25:27;20.30;49.70
28374;DHT22;15616;40.148;-102.718;2023-04-08T00:27:53;20.30;49.70
28374;DHT22;15616;40.148;-102.718;2023-04-08T00:30:18;20.30;49.70
28374;DHT22;15616;40.148;-102.718;2023-04-08T00:32:44;20.20;49.60
28374;DHT22;15616;40.148;-102.718;2023-04-08T00:35:13;20.30;49.70
28374;DHT22;15616;40.148;-102.718;2023-04-08T00:37:39;20.30;49.80
28374;DHT22;15616;40.148;-102.718;2023-04-08T00:40:05;20.30;49.80
28374;DHT22;15616;40.148;-102.718;2023-04-08T00:42:31;20.30;49.80
28374;DHT22;15616;40.148;-102.718;2023-04-08T00:44:56;20.30;49.80
28374;DHT22;15616;40.148;-102.718;2023-04-08T00:47:22;20.30;49.80
28374;DHT22;15616;40.148;-102.718;2023-04-08T00:49:48;20.30;49.80
28374;DHT22;15616;40.148;-102.718;2023-04-08T00:52:14;20.20;49.70
28374;DHT22;15616;40.148;-102.718;2023-04-08T00:54:40;20.30;49.80
28374;DHT22;15616;40.148;-102.718;2023-04-08T00:57:06;20.30;49.80
28374;DHT22;15616;40.148;-102.718;2023-04-08T00:59:32;20.30;49.80
28374;DHT22;15616;40.148;-102.718;2023-04-08T01:02:00;20.30;49.80
28374;DHT22;15616;40.148;-102.718;2023-04-08T01:07:30;20.30;49.80
28374;DHT22;15616;40.148;-102.718;2023-04-08T01:09:58;20.20;49.80
28374;DHT22;15616;40.148;-102.718;2023-04-08T01:12:27;20.30;49.90
28374;DHT22;15616;40.148;-102.718;2023-04-08T01:15:02;20.30;49.90
28374;DHT22;15616;40.148;-102.718;2023-04-08T01:17:29;20.30;49.90
28374;DHT22;15616;40.148;-102.718;2023-04-08T01:19:56;20.30;49.90
28374;DHT22;15616;40.148;-102.718;2023-04-08T01:22:32;20.30;49.90
28374;DHT22;15616;40.148;-102.718;2023-04-08T01:27:50;20.20;49.80
28374;DHT22;15616;40.148;-102.718;2023-04-08T01:30:17;20.30;49.90
28374;DHT22;15616;40.148;-102.718;2023-04-08T01:32:44;20.30;50.00
28374;DHT22;15616;40.148;-102.718;2023-04-08T01:35:11;20.20;49.90
28374;DHT22;15616;40.148;-102.718;2023-04-08T01:37:37;20.20;49.90
28374;DHT22;15616;40.148;-102.718;2023-04-08T01:40:04;20.20;49.90
28374;DHT22;15616;40.148;-102.718;2023-04-08T01:42:32;20.20;49.90
28374;DHT22;15616;40.148;-102.718;2023-04-08T01:44:58;20.20;49.90
28374;DHT22;15616;40.148;-102.718;2023-04-08T01:47:25;20.20;49.90
28374;DHT22;15616;40.148;-102.718;2023-04-08T01:49:51;20.20;49.90
28374;DHT22;15616;40.148;-102.718;2023-04-08T01:52:17;20.20;49.90
28374;DHT22;15616;40.148;-102.718;2023-04-08T01:54:44;20.20;50.00
28374;DHT22;15616;40.148;-102.718;2023-04-08T01:57:10;20.20;50.60
28374;DHT22;15616;40.148;-102.718;2023-04-08T01:59:37;20.20;50.00
28374;DHT22;15616;40.148;-102.718;2023-04-08T02:02:04;20.20;50.00
28374;DHT22;15616;40.148;-102.718;2023-04-08T02:04:33;20.20;50.00
28374;DHT22;15616;40.148;-102.718;2023-04-08T02:06:58;20.20;50.00
28374;DHT22;15616;40.148;-102.718;2023-04-08T02:09:25;20.20;50.00
28374;DHT22;15616;40.148;-102.718;2023-04-08T02:11:51;20.20;50.00
28374;DHT22;15616;40.148;-102.718;2023-04-08T02:14:17;20.20;50.00
28374;DHT22;15616;40.148;-102.718;2023-04-08T02:16:52;20.20;50.00
28374;DHT22;15616;40.148;-102.718;2023-04-08T02:19:22;20.20;50.00
28374;DHT22;15616;40.148;-102.718;2023-04-08T02:21:51;20.20;50.00
28374;DHT22;15616;40.148;-102.718;2023-04-08T02:24:17;20.20;50.00
28374;DHT22;15616;40.148;-102.718;2023-04-08T02:26:43;20.20;50.00
28374;DHT22;15616;40.148;-102.718;2023-04-08T02:29:11;20.20;50.00
28374;DHT22;15616;40.148;-102.718;2023-04-08T02:31:37;20.20;50.00
28374;DHT22;15616;40.148;-102.718;2023-04-08T02:34:03;20.20;50.00
28374;DHT22;15616;40.148;-102.718;2023-04-08T02:36:30;20.20;50.00
28374;DHT22;15616;40.148;-102.718;2023-04-08T02:38:57;20.10;50.00
28374;DHT22;15616;40.148;-102.718;2023-04-08T02:41:26;20.20;50.00
28374;DHT22;15616;40.148;-102.718;2023-04-08T02:43:52;20.20;50.00
28374;DHT22;15616;40.148;-102.718;2023-04-08T02:46:19;20.20;50.10
28374;DHT22;15616;40.148;-102.718;2023-04-08T02:48:45;20.20;50.10
28374;DHT22;15616;40.148;-102.718;2023-04-08T02:51:11;20.10;50.00
28374;DHT22;15616;40.148;-102.718;2023-04-08T02:53:37;20.10;50.10
28374;DHT22;15616;40.148;-102.718;2023-04-08T02:56:02;20.10;50.10
28374;DHT22;15616;40.148;-102.718;2023-04-08T02:58:28;20.10;50.10
28374;DHT22;15616;40.148;-102.718;2023-04-08T03:00:54;20.10;50.10
28374;DHT22;15616;40.148;-102.718;2023-04-08T03:03:20;20.10;50.10
28374;DHT22;15616;40.148;-102.718;2023-04-08T03:05:52;20.10;50.10
28374;DHT22;15616;40.148;-102.718;2023-04-08T03:08:18;20.10;50.10
28374;DHT22;15616;40.148;-102.718;2023-04-08T03:10:44;20.10;50.20
28374;DHT22;15616;40.148;-102.718;2023-04-08T03:13:10;20.10;50.10
28374;DHT22;15616;40.148;-102.718;2023-04-08T03:15:35;20.10;50.20
28374;DHT22;15616;40.148;-102.718;2023-04-08T03:18:01;20.10;50.20
28374;DHT22;15616;40.148;-102.718;2023-04-08T03:20:27;20.10;50.20
28374;DHT22;15616;40.148;-102.718;2023-04-08T03:22:52;20.20;50.20
28374;DHT22;15616;40.148;-102.718;2023-04-08T03:25:18;20.10;50.10
28374;DHT22;15616;40.148;-102.718;2023-04-08T03:27:43;20.10;50.10
28374;DHT22;15616;40.148;-102.718;2023-04-08T03:30:09;20.10;50.10
28374;DHT22;15616;40.148;-102.718;2023-04-08T03:32:35;20.10;50.20
28374;DHT22;15616;40.148;-102.718;2023-04-08T03:35:00;20.10;50.20
28374;DHT22;15616;40.148;-102.718;2023-04-08T03:37:26;20.10;50.10
28374;DHT22;15616;40.148;-102.718;2023-04-08T03:39:53;20.10;50.20
28374;DHT22;15616;40.148;-102.718;2023-04-08T03:42:19;20.10;50.90
28374;DHT22;15616;40.148;-102.718;2023-04-08T03:44:44;20.10;50.20
28374;DHT22;15616;40.148;-102.718;2023-04-08T03:47:10;20.10;50.20
28374;DHT22;15616;40.148;-102.718;2023-04-08T03:49:36;20.10;50.30
28374;DHT22;15616;40.148;-102.718;2023-04-08T03:52:02;20.10;50.30
28374;DHT22;15616;40.148;-102.718;2023-04-08T03:54:27;20.10;50.30
28374;DHT22;15616;40.148;-102.718;2023-04-08T03:56:54;20.10;50.30
28374;DHT22;15616;40.148;-102.718;2023-04-08T03:59:20;20.10;50.30
28374;DHT22;15616;40.148;-102.718;2023-04-08T04:01:45;20.10;50.30
28374;DHT22;15616;40.148;-102.718;2023-04-08T04:04:12;20.10;50.30
28374;DHT22;15616;40.148;-102.718;2023-04-08T04:06:37;20.10;50.30
28374;DHT22;15616;40.148;-102.718;2023-04-08T04:09:03;20.10;50.30
28374;DHT22;15616;40.148;-102.718;2023-04-08T04:11:29;20.10;50.40
28374;DHT22;15616;40.148;-102.718;2023-04-08T04:13:54;20.10;50.30
28374;DHT22;15616;40.148;-102.718;2023-04-08T04:16:20;20.10;50.30
28374;DHT22;15616;40.148;-102.718;2023-04-08T04:18:46;20.10;50.30
28374;DHT22;15616;40.148;-102.718;2023-04-08T04:21:12;20.10;50.30
28374;DHT22;15616;40.148;-102.718;2023-04-08T04:23:37;20.10;50.30
28374;DHT22;15616;40.148;-102.718;2023-04-08T04:26:07;20.10;50.30
28374;DHT22;15616;40.148;-102.718;2023-04-08T04:28:33;20.10;50.40
28374;DHT22;15616;40.148;-102.718;2023-04-08T04:30:58;20.10;50.30
28374;DHT22;15616;40.148;-102.718;2023-04-08T04:33:24;20.10;50.30
28374;DHT22;15616;40.148;-102.718;2023-04-08T04:35:50;20.10;50.30
28374;DHT22;15616;40.148;-102.718;2023-04-08T04:38:15;20.10;50.30
28374;DHT22;15616;40.148;-102.718;2023-04-08T04:40:41;20.10;50.30
28374;DHT22;15616;40.148;-102.718;2023-04-08T04:43:08;20.10;50.30
28374;DHT22;15616;40.148;-102.718;2023-04-08T04:45:34;20.10;50.30
28374;DHT22;15616;40.148;-102.718;2023-04-08T04:48:00;20.10;50.30
28374;DHT22;15616;40.148;-102.718;2023-04-08T04:50:26;20.10;50.20
28374;DHT22;15616;40.148;-102.718;2023-04-08T04:52:52;20.10;50.20
28374;DHT22;15616;40.148;-102.718;2023-04-08T04:55:17;20.10;50.30
28374;DHT22;15616;40.148;-102.718;2023-04-08T04:57:43;20.10;50.30
28374;DHT22;15616;40.148;-102.718;2023-04-08T05:00:09;20.10;50.30
28374;DHT22;15616;40.148;-102.718;2023-04-08T05:02:35;20.10;50.30
28374;DHT22;15616;40.148;-102.718;2023-04-08T05:05:00;20.10;50.30
28374;DHT22;15616;40.148;-102.718;2023-04-08T05:07:26;20.10;50.30
28374;DHT22;15616;40.148;-102.718;2023-04-08T05:09:52;20.10;50.40
28374;DHT22;15616;40.148;-102.718;2023-04-08T05:12:18;20.10;50.30
28374;DHT22;15616;40.148;-102.718;2023-04-08T05:14:46;20.10;50.30
28374;DHT22;15616;40.148;-102.718;2023-04-08T05:17:12;20.10;50.30
28374;DHT22;15616;40.148;-102.718;2023-04-08T05:19:38;20.10;50.30
28374;DHT22;15616;40.148;-102.718;2023-04-08T05:22:04;20.10;50.30
28374;DHT22;15616;40.148;-102.718;2023-04-08T05:24:29;20.10;50.30
28374;DHT22;15616;40.148;-102.718;2023-04-08T05:26:55;20.10;50.30
28374;DHT22;15616;40.148;-102.718;2023-04-08T05:29:22;20.10;50.30
28374;DHT22;15616;40.148;-102.718;2023-04-08T05:31:48;20.10;50.30
28374;DHT22;15616;40.148;-102.718;2023-04-08T05:34:13;20.10;50.30
28374;DHT22;15616;40.148;-102.718;2023-04-08T05:36:40;20.10;50.30
28374;DHT22;15616;40.148;-102.718;2023-04-08T05:39:05;20.10;50.30
28374;DHT22;15616;40.148;-102.718;2023-04-08T05:41:31;20.10;50.30
28374;DHT22;15616;40.148;-102.718;2023-04-08T05:43:57;20.10;50.30
28374;DHT22;15616;40.148;-102.718;2023-04-08T05:46:22;20.10;50.30
28374;DHT22;15616;40.148;-102.718;2023-04-08T05:48:48;20.10;50.30
28374;DHT22;15616;40.148;-102.718;2023-04-08T05:51:14;20.10;50.30
28374;DHT22;15616;40.148;-102.718;2023-04-08T05:53:40;20.10;50.30
28374;DHT22;15616;40.148;-102.718;2023-04-08T05:56:06;20.10;50.30
28374;DHT22;15616;40.148;-102.718;2023-04-08T05:58:31;20.10;50.30
28374;DHT22;15616;40.148;-102.718;2023-04-08T06:00:57;20.10;50.30
28374;DHT22;15616;40.148;-102.718;2023-04-08T06:03:23;20.10;50.30
28374;DHT22;15616;40.148;-102.718;2023-04-08T06:05:48;20.10;50.30
28374;DHT22;15616;40.148;-102.718;2023-04-08T06:08:14;20.10;50.20
28374;DHT22;15616;40.148;-102.718;2023-04-08T06:10:47;20.10;50.20
28374;DHT22;15616;40.148;-102.718;2023-04-08T06:13:12;20.10;50.20
28374;DHT22;15616;40.148;-102.718;2023-04-08T06:15:38;20.10;50.20
28374;DHT22;15616;40.148;-102.718;2023-04-08T06:18:04;20.10;50.30
28374;DHT22;15616;40.148;-102.718;2023-04-08T06:20:29;20.10;50.30
28374;DHT22;15616;40.148;-102.718;2023-04-08T06:22:55;20.10;50.20
28374;DHT22;15616;40.148;-102.718;2023-04-08T06:25:21;20.10;50.20
28374;DHT22;15616;40.148;-102.718;2023-04-08T06:27:47;20.20;50.30
28374;DHT22;15616;40.148;-102.718;2023-04-08T06:30:13;20.10;50.20
28374;DHT22;15616;40.148;-102.718;2023-04-08T06:32:38;20.10;50.20
28374;DHT22;15616;40.148;-102.718;2023-04-08T06:35:04;20.10;50.20
28374;DHT22;15616;40.148;-102.718;2023-04-08T06:37:30;20.10;50.20
28374;DHT22;15616;40.148;-102.718;2023-04-08T06:39:56;20.10;50.20
28374;DHT22;15616;40.148;-102.718;2023-04-08T06:42:21;20.10;50.30
28374;DHT22;15616;40.148;-102.718;2023-04-08T06:44:47;20.10;50.20
28374;DHT22;15616;40.148;-102.718;2023-04-08T06:47:13;20.20;50.30
28374;DHT22;15616;40.148;-102.718;2023-04-08T06:49:38;20.10;50.20
28374;DHT22;15616;40.148;-102.718;2023-04-08T06:52:05;20.20;50.30
28374;DHT22;15616;40.148;-102.718;2023-04-08T06:54:32;20.10;50.30
28374;DHT22;15616;40.148;-102.718;2023-04-08T06:56:58;20.10;50.20
28374;DHT22;15616;40.148;-102.718;2023-04-08T06:59:23;20.10;50.20
28374;DHT22;15616;40.148;-102.718;2023-04-08T07:01:49;20.20;50.30
28374;DHT22;15616;40.148;-102.718;2023-04-08T07:04:15;20.10;50.30
28374;DHT22;15616;40.148;-102.718;2023-04-08T07:06:41;20.10;50.30
28374;DHT22;15616;40.148;-102.718;2023-04-08T07:09:07;20.10;50.30
28374;DHT22;15616;40.148;-102.718;2023-04-08T07:11:33;20.10;50.20
28374;DHT22;15616;40.148;-102.718;2023-04-08T07:13:59;20.10;50.30
28374;DHT22;15616;40.148;-102.718;2023-04-08T07:16:24;20.10;50.30
28374;DHT22;15616;40.148;-102.718;2023-04-08T07:18:50;20.20;50.30
28374;DHT22;15616;40.148;-102.718;2023-04-08T07:21:16;20.10;50.30
28374;DHT22;15616;40.148;-102.718;2023-04-08T07:23:42;20.20;50.30
28374;DHT22;15616;40.148;-102.718;2023-04-08T07:26:08;20.20;50.30
28374;DHT22;15616;40.148;-102.718;2023-04-08T07:28:34;20.10;50.20
28374;DHT22;15616;40.148;-102.718;2023-04-08T07:31:12;20.10;50.30
28374;DHT22;15616;40.148;-102.718;2023-04-08T07:33:38;20.10;50.30
28374;DHT22;15616;40.148;-102.718;2023-04-08T07:36:04;20.10;50.30
28374;DHT22;15616;40.148;-102.718;2023-04-08T07:38:30;20.10;50.30
28374;DHT22;15616;40.148;-102.718;2023-04-08T07:40:55;20.10;50.30
28374;DHT22;15616;40.148;-102.718;2023-04-08T07:43:21;20.20;50.30
28374;DHT22;15616;40.148;-102.718;2023-04-08T07:45:47;20.10;50.20
28374;DHT22;15616;40.148;-102.718;2023-04-08T07:48:12;20.20;50.30
28374;DHT22;15616;40.148;-102.718;2023-04-08T07:50:38;20.20;50.30
28374;DHT22;15616;40.148;-102.718;2023-04-08T07:53:04;20.10;50.30
28374;DHT22;15616;40.148;-102.718;2023-04-08T07:55:33;20.20;50.30
28374;DHT22;15616;40.148;-102.718;2023-04-08T07:57:59;20.20;50.30
28374;DHT22;15616;40.148;-102.718;2023-04-08T08:00:26;20.20;50.30
28374;DHT22;15616;40.148;-102.718;2023-04-08T08:02:52;20.20;50.30
28374;DHT22;15616;40.148;-102.718;2023-04-08T08:05:17;20.20;50.30
28374;DHT22;15616;40.148;-102.718;2023-04-08T08:07:43;20.20;50.30
28374;DHT22;15616;40.148;-102.718;2023-04-08T08:10:09;20.20;50.30
28374;DHT22;15616;40.148;-102.718;2023-04-08T08:12:35;20.10;50.30
28374;DHT22;15616;40.148;-102.718;2023-04-08T08:15:01;20.20;50.30
28374;DHT22;15616;40.148;-102.718;2023-04-08T08:17:27;20.20;50.40
28374;DHT22;15616;40.148;-102.718;2023-04-08T08:19:55;20.20;50.40
28374;DHT22;15616;40.148;-102.718;2023-04-08T08:22:21;20.20;50.40
28374;DHT22;15616;40.148;-102.718;2023-04-08T08:24:47;20.20;50.50
28374;DHT22;15616;40.148;-102.718;2023-04-08T08:27:12;20.20;50.40
28374;DHT22;15616;40.148;-102.718;2023-04-08T08:29:38;20.10;50.40
28374;DHT22;15616;40.148;-102.718;2023-04-08T08:32:04;20.10;51.10
28374;DHT22;15616;40.148;-102.718;2023-04-08T08:34:30;20.10;50.40
28374;DHT22;15616;40.148;-102.718;2023-04-08T08:36:56;20.10;50.40
28374;DHT22;15616;40.148;-102.718;2023-04-08T08:39:21;20.10;50.40
28374;DHT22;15616;40.148;-102.718;2023-04-08T08:41:47;20.20;51.10
28374;DHT22;15616;40.148;-102.718;2023-04-08T08:44:13;20.10;50.40
28374;DHT22;15616;40.148;-102.718;2023-04-08T08:46:45;20.20;50.50
28374;DHT22;15616;40.148;-102.718;2023-04-08T08:49:12;20.10;50.40
28374;DHT22;15616;40.148;-102.718;2023-04-08T08:51:41;20.10;50.40
28374;DHT22;15616;40.148;-102.718;2023-04-08T08:54:10;20.10;50.40
28374;DHT22;15616;40.148;-102.718;2023-04-08T08:56:35;20.10;50.40
28374;DHT22;15616;40.148;-102.718;2023-04-08T08:59:01;20.10;50.40
28374;DHT22;15616;40.148;-102.718;2023-04-08T09:01:38;20.10;50.40
28374;DHT22;15616;40.148;-102.718;2023-04-08T09:04:14;20.20;50.40
28374;DHT22;15616;40.148;-102.718;2023-04-08T09:07:05;20.10;50.40
28374;DHT22;15616;40.148;-102.718;2023-04-08T09:09:54;20.10;50.40
28374;DHT22;15616;40.148;-102.718;2023-04-08T09:12:19;20.10;50.40
28374;DHT22;15616;40.148;-102.718;2023-04-08T09:14:45;20.20;50.50
28374;DHT22;15616;40.148;-102.718;2023-04-08T09:17:11;20.20;50.40
28374;DHT22;15616;40.148;-102.718;2023-04-08T09:19:36;20.20;50.40
28374;DHT22;15616;40.148;-102.718;2023-04-08T09:22:06;20.20;50.40
28374;DHT22;15616;40.148;-102.718;2023-04-08T09:24:32;20.20;50.40
28374;DHT22;15616;40.148;-102.718;2023-04-08T09:26:57;20.20;50.30
28374;DHT22;15616;40.148;-102.718;2023-04-08T09:29:24;20.20;50.30
28374;DHT22;15616;40.148;-102.718;2023-04-08T09:31:54;20.20;50.30
28374;DHT22;15616;40.148;-102.718;2023-04-08T09:34:20;20.20;50.30
28374;DHT22;15616;40.148;-102.718;2023-04-08T09:36:48;20.20;50.40
28374;DHT22;15616;40.148;-102.718;2023-04-08T09:39:14;20.20;50.40
28374;DHT22;15616;40.148;-102.718;2023-04-08T09:41:40;20.20;50.40
28374;DHT22;15616;40.148;-102.718;2023-04-08T09:44:07;20.20;50.50
28374;DHT22;15616;40.148;-102.718;2023-04-08T09:49:23;20.10;50.50
28374;DHT22;15616;40.148;-102.718;2023-04-08T09:51:55;20.20;50.50
28374;DHT22;15616;40.148;-102.718;2023-04-08T09:54:30;20.10;50.50
28374;DHT22;15616;40.148;-102.718;2023-04-08T09:57:09;20.20;50.60
28374;DHT22;15616;40.148;-102.718;2023-04-08T09:59:38;20.10;50.60
28374;DHT22;15616;40.148;-102.718;2023-04-08T10:02:05;20.10;50.50
28374;DHT22;15616;40.148;-102.718;2023-04-08T10:04:34;20.10;50.50
28374;DHT22;15616;40.148;-102.718;2023-04-08T10:07:02;20.20;50.60
28374;DHT22;15616;40.148;-102.718;2023-04-08T10:09:28;20.20;50.60
28374;DHT22;15616;40.148;-102.718;2023-04-08T10:11:55;20.10;51.20
28374;DHT22;15616;40.148;-102.718;2023-04-08T10:14:21;20.20;50.60
28374;DHT22;15616;40.148;-102.718;2023-04-08T10:16:47;20.10;50.60
28374;DHT22;15616;40.148;-102.718;2023-04-08T10:21:57;20.20;50.60
28374;DHT22;15616;40.148;-102.718;2023-04-08T10:24:23;20.20;50.60
28374;DHT22;15616;40.148;-102.718;2023-04-08T10:26:50;20.20;50.60
28374;DHT22;15616;40.148;-102.718;2023-04-08T10:31:51;20.20;50.60
28374;DHT22;15616;40.148;-102.718;2023-04-08T10:34:20;20.20;50.60
28374;DHT22;15616;40.148;-102.718;2023-04-08T10:36:47;20.20;50.60
28374;DHT22;15616;40.148;-102.718;2023-04-08T10:39:13;20.20;50.60
28374;DHT22;15616;40.148;-102.718;2023-04-08T10:41:41;20.20;50.50
28374;DHT22;15616;40.148;-102.718;2023-04-08T10:44:14;20.20;50.50
28374;DHT22;15616;40.148;-102.718;2023-04-08T10:46:40;20.20;50.50
28374;DHT22;15616;40.148;-102.718;2023-04-08T10:49:06;20.20;50.50
28374;DHT22;15616;40.148;-102.718;2023-04-08T10:51:33;20.20;50.50
28374;DHT22;15616;40.148;-102.718;2023-04-08T10:54:08;20.20;50.50
28374;DHT22;15616;40.148;-102.718;2023-04-08T10:56:50;20.20;50.50
28374;DHT22;15616;40.148;-102.718;2023-04-08T10:59:20;20.20;50.50
28374;DHT22;15616;40.148;-102.718;2023-04-08T11:01:51;20.20;50.50
28374;DHT22;15616;40.148;-102.718;2023-04-08T11:04:17;20.20;50.50
28374;DHT22;15616;40.148;-102.718;2023-04-08T11:06:44;20.20;50.60
28374;DHT22;15616;40.148;-102.718;2023-04-08T11:09:10;20.20;50.50
28374;DHT22;15616;40.148;-102.718;2023-04-08T11:11:36;20.20;50.60
28374;DHT22;15616;40.148;-102.718;2023-04-08T11:14:02;20.20;50.50
28374;DHT22;15616;40.148;-102.718;2023-04-08T11:16:28;20.20;51.20
28374;DHT22;15616;40.148;-102.718;2023-04-08T11:18:53;20.20;50.50
28374;DHT22;15616;40.148;-102.718;2023-04-08T11:21:22;20.20;50.50
28374;DHT22;15616;40.148;-102.718;2023-04-08T11:23:48;20.20;50.50
28374;DHT22;15616;40.148;-102.718;2023-04-08T11:26:14;20.30;50.50
28374;DHT22;15616;40.148;-102.718;2023-04-08T11:28:40;20.30;50.40
28374;DHT22;15616;40.148;-102.718;2023-04-08T11:31:05;20.30;50.40
28374;DHT22;15616;40.148;-102.718;2023-04-08T11:33:33;20.30;50.40
28374;DHT22;15616;40.148;-102.718;2023-04-08T11:36:00;20.30;50.40
28374;DHT22;15616;40.148;-102.718;2023-04-08T11:38:26;20.30;50.30
28374;DHT22;15616;40.148;-102.718;2023-04-08T11:40:52;20.30;50.40
28374;DHT22;15616;40.148;-102.718;2023-04-08T11:43:18;20.30;50.30
28374;DHT22;15616;40.148;-102.718;2023-04-08T11:45:44;20.30;50.30
28374;DHT22;15616;40.148;-102.718;2023-04-08T11:48:11;20.40;50.40
28374;DHT22;15616;40.148;-102.718;2023-04-08T11:50:36;20.30;50.30
28374;DHT22;15616;40.148;-102.718;2023-04-08T11:53:02;20.40;50.40
28374;DHT22;15616;40.148;-102.718;2023-04-08T11:55:29;20.30;51.00
28374;DHT22;15616;40.148;-102.718;2023-04-08T11:57:56;20.40;50.40
28374;DHT22;15616;40.148;-102.718;2023-04-08T12:00:22;20.30;50.30
28374;DHT22;15616;40.148;-102.718;2023-04-08T12:02:48;20.30;50.40
28374;DHT22;15616;40.148;-102.718;2023-04-08T12:05:15;20.30;50.30
28374;DHT22;15616;40.148;-102.718;2023-04-08T12:07:42;20.30;50.40
28374;DHT22;15616;40.148;-102.718;2023-04-08T12:10:08;20.40;50.40
28374;DHT22;15616;40.148;-102.718;2023-04-08T12:12:34;20.40;50.40
28374;DHT22;15616;40.148;-102.718;2023-04-08T12:14:59;20.40;50.40
28374;DHT22;15616;40.148;-102.718;2023-04-08T12:17:25;20.30;50.40
28374;DHT22;15616;40.148;-102.718;2023-04-08T12:19:51;20.40;50.40
28374;DHT22;15616;40.148;-102.718;2023-04-08T12:22:17;20.40;50.40
28374;DHT22;15616;40.148;-102.718;2023-04-08T12:24:42;20.40;50.40
28374;DHT22;15616;40.148;-102.718;2023-04-08T12:27:08;20.40;50.40
28374;DHT22;15616;40.148;-102.718;2023-04-08T12:29:34;20.40;50.40
28374;DHT22;15616;40.148;-102.718;2023-04-08T12:32:00;20.40;50.30
28374;DHT22;15616;40.148;-102.718;2023-04-08T12:34:26;20.40;50.30
28374;DHT22;15616;40.148;-102.718;2023-04-08T12:36:52;20.40;50.30
28374;DHT22;15616;40.148;-102.718;2023-04-08T12:39:19;20.40;50.40
28374;DHT22;15616;40.148;-102.718;2023-04-08T12:41:45;20.40;50.30
28374;DHT22;15616;40.148;-102.718;2023-04-08T12:44:11;20.40;50.30
28374;DHT22;15616;40.148;-102.718;2023-04-08T12:46:37;20.40;50.40
28374;DHT22;15616;40.148;-102.718;2023-04-08T12:49:02;20.40;50.40
28374;DHT22;15616;40.148;-102.718;2023-04-08T12:51:28;20.40;50.40
28374;DHT22;15616;40.148;-102.718;2023-04-08T12:53:55;20.50;50.40
28374;DHT22;15616;40.148;-102.718;2023-04-08T12:56:21;20.50;50.30
28374;DHT22;15616;40.148;-102.718;2023-04-08T12:58:47;20.50;50.30
28374;DHT22;15616;40.148;-102.718;2023-04-08T13:01:12;20.50;50.30
28374;DHT22;15616;40.148;-102.718;2023-04-08T13:03:38;20.50;50.30
28374;DHT22;15616;40.148;-102.718;2023-04-08T13:06:04;20.50;50.30
28374;DHT22;15616;40.148;-102.718;2023-04-08T13:08:30;20.50;50.30
28374;DHT22;15616;40.148;-102.718;2023-04-08T13:10:56;20.50;50.30
28374;DHT22;15616;40.148;-102.718;2023-04-08T13:13:21;20.50;50.20
28374;DHT22;15616;40.148;-102.718;2023-04-08T13:15:47;20.60;50.30
28374;DHT22;15616;40.148;-102.718;2023-04-08T13:18:13;20.60;50.20
28374;DHT22;15616;40.148;-102.718;2023-04-08T13:20:39;20.50;50.20
28374;DHT22;15616;40.148;-102.718;2023-04-08T13:23:04;20.50;50.20
28374;DHT22;15616;40.148;-102.718;2023-04-08T13:25:30;20.60;50.20
28374;DHT22;15616;40.148;-102.718;2023-04-08T13:27:56;20.60;50.20
28374;DHT22;15616;40.148;-102.718;2023-04-08T13:30:21;20.60;50.20
28374;DHT22;15616;40.148;-102.718;2023-04-08T13:32:47;20.60;50.20
28374;DHT22;15616;40.148;-102.718;2023-04-08T13:35:13;20.60;50.20
28374;DHT22;15616;40.148;-102.718;2023-04-08T13:37:39;20.60;50.20
28374;DHT22;15616;40.148;-102.718;2023-04-08T13:40:04;20.60;50.10
28374;DHT22;15616;40.148;-102.718;2023-04-08T13:42:30;20.60;50.10
28374;DHT22;15616;40.148;-102.718;2023-04-08T13:44:57;20.60;50.10
28374;DHT22;15616;40.148;-102.718;2023-04-08T13:47:23;20.60;50.10
28374;DHT22;15616;40.148;-102.718;2023-04-08T13:49:48;20.60;50.00
28374;DHT22;15616;40.148;-102.718;2023-04-08T13:52:14;20.60;50.00
28374;DHT22;15616;40.148;-102.718;2023-04-08T13:54:40;20.60;50.00
28374;DHT22;15616;40.148;-102.718;2023-04-08T13:57:06;20.60;50.00
28374;DHT22;15616;40.148;-102.718;2023-04-08T13:59:32;20.60;50.00
28374;DHT22;15616;40.148;-102.718;2023-04-08T14:01:58;20.60;49.90
28374;DHT22;15616;40.148;-102.718;2023-04-08T14:04:23;20.60;50.00
28374;DHT22;15616;40.148;-102.718;2023-04-08T14:06:49;20.60;50.00
28374;DHT22;15616;40.148;-102.718;2023-04-08T14:09:16;20.60;50.00
28374;DHT22;15616;40.148;-102.718;2023-04-08T14:11:42;20.70;50.00
28374;DHT22;15616;40.148;-102.718;2023-04-08T14:14:08;20.70;50.00
28374;DHT22;15616;40.148;-102.718;2023-04-08T14:16:33;20.70;49.90
28374;DHT22;15616;40.148;-102.718;2023-04-08T14:19:00;20.70;49.90
28374;DHT22;15616;40.148;-102.718;2023-04-08T14:21:26;20.70;49.90
28374;DHT22;15616;40.148;-102.718;2023-04-08T14:23:52;20.70;49.90
28374;DHT22;15616;40.148;-102.718;2023-04-08T14:26:17;20.70;49.90
28374;DHT22;15616;40.148;-102.718;2023-04-08T14:28:43;20.70;49.90
28374;DHT22;15616;40.148;-102.718;2023-04-08T14:31:09;20.70;50.00
28374;DHT22;15616;40.148;-102.718;2023-04-08T14:33:34;20.70;50.00
28374;DHT22;15616;40.148;-102.718;2023-04-08T14:36:00;20.70;50.00
28374;DHT22;15616;40.148;-102.718;2023-04-08T14:38:26;20.70;50.00
28374;DHT22;15616;40.148;-102.718;2023-04-08T14:40:52;20.70;50.60
28374;DHT22;15616;40.148;-102.718;2023-04-08T14:43:19;20.70;49.90
28374;DHT22;15616;40.148;-102.718;2023-04-08T14:45:45;20.70;49.90
28374;DHT22;15616;40.148;-102.718;2023-04-08T14:48:11;20.70;49.90
28374;DHT22;15616;40.148;-102.718;2023-04-08T14:50:36;20.70;49.80
28374;DHT22;15616;40.148;-102.718;2023-04-08T14:53:02;20.70;49.90
28374;DHT22;15616;40.148;-102.718;2023-04-08T14:55:28;20.70;49.80
28374;DHT22;15616;40.148;-102.718;2023-04-08T14:57:55;20.70;49.90